Time;durP1;ratioP1;P1;durP2;ratioP2;P2;SDS_P1;SDS_P2;PMS_P1;PMS_P2;Temp;Humidity;BMP_temperature;BMP_pressure;BME280_temperature;BME280_humidity;BME280_pressure;Samples;Min_cycle;Max_cycle;Signal;HPM_P1;HPM_P2
2023/07/13 00:02:04;;;;;;;10.70;6.60;;;;;;;21.78;100.00;99807.05;178388;1266;46128;-83
2023/07/13 00:06:08;;;;;;;7.80;5.60;;;;;;;21.73;100.00;99801.10;178694;1262;58268;-83
2023/07/13 00:10:12;;;;;;;7.40;5.50;;;;;;;21.66;100.00;99793.58;178552;1263;46176;-83
2023/07/13 00:14:16;;;;;;;7.80;5.20;;;;;;;21.56;100.00;99796.27;178375;1266;46109;-83
2023/07/13 00:18:20;;;;;;;9.30;6.30;;;;;;;21.46;100.00;99802.56;178188;1262;46047;-83
2023/07/13 00:22:25;;;;;;;6.40;5.60;;;;;;;21.37;100.00;99811.67;177944;1262;45938;-83
2023/07/13 00:26:29;;;;;;;8.90;6.30;;;;;;;21.26;100.00;99811.52;178000;1262;58232;-83
2023/07/13 00:30:32;;;;;;;6.30;5.70;;;;;;;21.16;100.00;99825.88;178234;1262;45980;-83
2023/07/13 00:34:37;;;;;;;7.60;5.80;;;;;;;21.08;100.00;99833.95;178014;1262;46048;-83
2023/07/13 00:38:40;;;;;;;6.20;5.10;;;;;;;21.01;100.00;99836.66;177966;1262;46106;-84
2023/07/13 00:42:43;;;;;;;7.10;6.30;;;;;;;20.93;100.00;99842.48;177882;1266;46111;-83
2023/07/13 00:46:46;;;;;;;6.70;5.90;;;;;;;20.86;100.00;99837.48;178058;1265;58326;-83
2023/07/13 00:50:53;;;;;;;7.20;6.10;;;;;;;20.72;100.00;99833.25;177730;1262;46181;-83
2023/07/13 00:54:57;;;;;;;8.90;6.30;;;;;;;20.59;100.00;99830.15;178147;1263;46046;-83
2023/07/13 00:59:03;;;;;;;11.40;7.30;;;;;;;20.44;100.00;99832.08;178021;1262;46039;-83
2023/07/13 01:03:06;;;;;;;6.90;6.20;;;;;;;20.39;100.00;99841.87;177853;1262;46164;-83
2023/07/13 01:07:12;;;;;;;12.00;5.70;;;;;;;20.36;100.00;99842.94;177744;1262;58004;-83
2023/07/13 01:11:21;;;;;;;7.30;4.40;;;;;;;20.34;100.00;99844.84;177881;1262;46167;-83
2023/07/13 01:15:35;;;;;;;7.30;6.10;;;;;;;20.34;100.00;99848.84;177858;1262;45991;-83
2023/07/13 01:19:42;;;;;;;6.80;5.00;;;;;;;20.34;100.00;99846.38;177785;1262;46107;-83
2023/07/13 01:23:45;;;;;;;7.40;5.40;;;;;;;20.29;100.00;99830.10;178011;1263;45140;-82
2023/07/13 01:27:48;;;;;;;7.40;4.40;;;;;;;20.25;100.00;99821.75;178093;1263;59503;-83
2023/07/13 01:31:52;;;;;;;5.50;4.40;;;;;;;20.15;100.00;99806.29;177760;1263;46156;-83
2023/07/13 01:35:57;;;;;;;8.20;5.80;;;;;;;20.09;100.00;99795.05;177775;1266;45930;-83
2023/07/13 01:40:00;;;;;;;9.20;5.80;;;;;;;20.06;100.00;99779.42;177773;1263;46065;-83
2023/07/13 01:44:04;;;;;;;7.70;5.50;;;;;;;20.06;100.00;99771.70;177665;1262;46051;-83
2023/07/13 01:48:07;;;;;;;10.70;5.80;;;;;;;20.08;100.00;99774.65;177517;1265;59254;-84
2023/07/13 01:52:10;;;;;;;7.00;6.10;;;;;;;20.07;100.00;99777.77;177554;1264;44208;-83
2023/07/13 01:56:13;;;;;;;6.70;4.30;;;;;;;20.03;100.00;99784.46;177331;1262;46048;-83
2023/07/13 02:00:17;;;;;;;9.90;6.10;;;;;;;20.06;100.00;99776.39;177944;1262;46593;-83
2023/07/13 02:04:20;;;;;;;7.40;4.70;;;;;;;20.05;100.00;99769.73;177663;1262;46114;-82
2023/07/13 02:08:23;;;;;;;6.30;4.70;;;;;;;20.01;100.00;99771.17;177544;1262;58666;-83
2023/07/13 02:12:26;;;;;;;6.60;4.60;;;;;;;19.96;100.00;99770.94;177668;1262;46063;-83
2023/07/13 02:16:30;;;;;;;8.00;4.20;;;;;;;19.92;100.00;99771.08;177404;1262;46147;-84
2023/07/13 02:20:34;;;;;;;8.70;6.20;;;;;;;19.89;100.00;99776.61;177489;1262;46218;-83
2023/07/13 02:24:38;;;;;;;6.00;4.30;;;;;;;19.85;100.00;99791.65;177271;1262;44775;-83
2023/07/13 02:28:41;;;;;;;7.40;4.00;;;;;;;19.76;100.00;99793.23;177418;1266;58280;-83
2023/07/13 02:32:44;;;;;;;7.40;5.80;;;;;;;19.74;100.00;99786.28;177817;1262;44814;-83
2023/07/13 02:36:47;;;;;;;16.60;7.30;;;;;;;19.76;100.00;99787.91;177244;1265;46115;-83
2023/07/13 02:40:51;;;;;;;10.00;6.30;;;;;;;19.74;100.00;99788.35;177353;1267;45933;-83
2023/07/13 02:44:54;;;;;;;7.10;6.40;;;;;;;19.74;100.00;99802.13;177340;1262;46008;-83
2023/07/13 02:48:57;;;;;;;9.80;6.90;;;;;;;19.67;100.00;99824.42;177773;1261;58692;-83
2023/07/13 02:53:00;;;;;;;18.60;6.40;;;;;;;19.52;100.00;99827.65;177622;1262;46007;-83
2023/07/13 02:57:04;;;;;;;11.90;5.50;;;;;;;19.46;100.00;99819.54;178125;1262;46117;-83
2023/07/13 03:01:10;;;;;;;10.00;5.00;;;;;;;19.58;100.00;99818.76;178103;1262;46042;-82
2023/07/13 03:05:14;;;;;;;8.50;5.20;;;;;;;19.58;100.00;99820.59;178262;1265;46072;-83
2023/07/13 03:09:17;;;;;;;12.30;5.70;;;;;;;19.54;100.00;99823.20;178299;1266;57302;-82
2023/07/13 03:13:21;;;;;;;8.30;5.00;;;;;;;19.44;100.00;99825.00;178164;1262;46088;-83
2023/07/13 03:17:24;;;;;;;17.90;7.50;;;;;;;19.36;100.00;99821.66;178672;1263;46071;-83
2023/07/13 03:21:28;;;;;;;18.00;8.30;;;;;;;19.25;100.00;99833.98;177911;1262;46088;-83
2023/07/13 03:25:31;;;;;;;9.20;7.20;;;;;;;19.37;100.00;99847.68;178087;1262;46004;-83
2023/07/13 03:29:34;;;;;;;12.50;7.80;;;;;;;19.51;100.00;99865.55;178724;1262;60306;-83
2023/07/13 03:33:38;;;;;;;7.00;6.20;;;;;;;19.50;100.00;99875.64;178206;1261;44936;-83
2023/07/13 03:37:42;;;;;;;9.60;4.80;;;;;;;19.34;100.00;99898.38;177940;1262;46085;-83
2023/07/13 03:41:46;;;;;;;9.40;5.80;;;;;;;19.05;100.00;99929.03;177696;1263;46828;-83
2023/07/13 03:45:49;;;;;;;7.10;5.30;;;;;;;18.87;100.00;99946.39;177819;1262;46041;-82
2023/07/13 03:49:53;;;;;;;12.00;5.40;;;;;;;18.61;100.00;99971.14;177587;1262;58293;-82
2023/07/13 03:53:56;;;;;;;8.00;4.50;;;;;;;18.50;100.00;99992.04;177608;1263;46032;-82
2023/07/13 03:58:21;;;;;;;6.70;3.70;;;;;;;18.37;100.00;99992.58;177730;1263;46055;-82
2023/07/13 04:02:24;;;;;;;8.30;3.60;;;;;;;18.26;100.00;99994.08;178429;1262;44828;-82
2023/07/13 04:06:29;;;;;;;6.60;4.20;;;;;;;18.11;100.00;100007.08;177320;1266;46126;-82
2023/07/13 04:10:32;;;;;;;12.10;4.70;;;;;;;18.06;100.00;100023.89;177589;1262;58677;-82
2023/07/13 04:14:35;;;;;;;7.90;4.30;;;;;;;18.00;100.00;100038.70;177289;1262;46146;-82
2023/07/13 04:18:38;;;;;;;7.20;3.20;;;;;;;17.90;100.00;100047.52;177395;1265;46180;-82
2023/07/13 04:22:46;;;;;;;3.50;3.10;;;;;;;17.90;100.00;100052.09;178501;1262;43704;-82
2023/07/13 04:26:51;;;;;;;4.70;3.50;;;;;;;17.93;100.00;100051.56;177933;1262;45997;-83
2023/07/13 04:30:55;;;;;;;6.90;3.30;;;;;;;18.05;100.00;100037.18;177658;1263;60395;-82
2023/07/13 04:34:59;;;;;;;6.10;3.40;;;;;;;18.23;100.00;100037.98;178803;1265;45373;-82
2023/07/13 04:39:02;;;;;;;7.70;4.00;;;;;;;18.36;100.00;100018.91;177945;1268;46162;-82
2023/07/13 04:43:05;;;;;;;8.40;4.40;;;;;;;18.55;100.00;99998.85;178045;1263;44099;-81
2023/07/13 04:47:08;;;;;;;8.60;4.30;;;;;;;18.68;100.00;99961.88;177819;1262;46017;-81
2023/07/13 04:51:12;;;;;;;13.20;5.40;;;;;;;18.68;100.00;99937.37;177300;1262;57941;-81
2023/07/13 04:55:15;;;;;;;6.90;4.10;;;;;;;18.66;100.00;99931.41;179204;1265;45889;-81
2023/07/13 04:59:18;;;;;;;5.70;3.50;;;;;;;18.68;100.00;99957.96;178354;1262;46395;-82
2023/07/13 05:03:21;;;;;;;17.00;5.80;;;;;;;18.76;100.00;99986.42;179035;1261;46108;-82
2023/07/13 05:07:26;;;;;;;12.10;4.40;;;;;;;18.88;100.00;99998.10;178491;1262;46125;-83
2023/07/13 05:11:29;;;;;;;9.70;4.40;;;;;;;18.98;100.00;100005.78;177980;1262;58632;-82
2023/07/13 05:15:33;;;;;;;14.50;4.90;;;;;;;19.10;100.00;100004.08;177813;1263;48025;-81
2023/07/13 05:19:37;;;;;;;10.80;4.40;;;;;;;19.18;100.00;100009.61;178083;1262;46147;-82
2023/07/13 05:23:41;;;;;;;11.40;3.80;;;;;;;19.20;100.00;100004.69;178152;1262;46144;-82
2023/07/13 05:27:45;;;;;;;7.70;3.40;;;;;;;19.21;100.00;100010.30;177557;1262;45120;-82
2023/07/13 05:31:49;;;;;;;9.90;3.40;;;;;;;19.19;100.00;100019.56;178120;1262;58976;-82
2023/07/13 05:35:53;;;;;;;19.70;4.70;;;;;;;19.11;100.00;100020.59;178079;1263;44142;-82
2023/07/13 05:39:56;;;;;;;7.30;4.70;;;;;;;19.17;100.00;100018.18;177715;1266;46086;-82
2023/07/13 05:43:59;;;;;;;8.60;5.80;;;;;;;19.30;100.00;100014.80;177825;1263;46436;-82
2023/07/13 05:48:02;;;;;;;6.80;4.30;;;;;;;19.42;100.00;100009.57;178621;1262;46022;-82
2023/07/13 05:52:06;;;;;;;13.30;5.40;;;;;;;19.57;100.00;100006.16;178822;1263;57920;-82
2023/07/13 05:56:09;;;;;;;13.30;5.80;;;;;;;19.76;100.00;100017.27;178399;1262;45705;-81
2023/07/13 06:00:12;;;;;;;10.10;5.00;;;;;;;19.87;100.00;100026.17;178120;1263;46090;-81
2023/07/13 06:04:16;;;;;;;6.10;4.80;;;;;;;20.01;100.00;100039.13;178355;1262;46062;-81
2023/07/13 06:08:19;;;;;;;9.10;5.20;;;;;;;20.12;100.00;100040.33;178006;1266;44794;-82
2023/07/13 06:12:22;;;;;;;9.10;5.00;;;;;;;20.12;100.00;100048.60;178798;1262;58346;-82
2023/07/13 06:16:25;;;;;;;13.60;5.70;;;;;;;20.05;100.00;100069.73;177945;1262;46078;-82
2023/07/13 06:20:29;;;;;;;16.10;5.70;;;;;;;19.93;100.00;100088.44;178240;1262;46062;-82
2023/07/13 06:24:32;;;;;;;12.30;5.50;;;;;;;19.73;100.00;100088.64;178139;1264;46063;-82
2023/07/13 06:28:36;;;;;;;11.00;5.20;;;;;;;19.53;100.00;100091.05;178620;1262;46788;-82
2023/07/13 06:32:39;;;;;;;9.60;4.50;;;;;;;19.33;100.00;100095.19;177673;1267;58292;-82
2023/07/13 06:36:44;;;;;;;7.10;4.00;;;;;;;19.21;100.00;100097.04;178017;1262;46129;-82
2023/07/13 06:40:47;;;;;;;6.30;3.50;;;;;;;19.07;100.00;100094.52;178158;1265;46036;-83
2023/07/13 06:44:49;;;;;;;9.60;3.70;;;;;;;19.03;100.00;100097.87;178022;1262;46031;-81
2023/07/13 06:48:52;;;;;;;6.40;3.40;;;;;;;18.92;100.00;100088.88;177829;1267;46197;-82
2023/07/13 06:52:55;;;;;;;8.90;4.20;;;;;;;18.71;100.00;100068.02;177881;1265;57941;-82
2023/07/13 06:56:58;;;;;;;7.10;5.00;;;;;;;18.69;100.00;100053.89;178411;1262;45914;-82
2023/07/13 07:01:01;;;;;;;6.20;4.10;;;;;;;18.73;100.00;100018.25;177604;1265;46124;-82
2023/07/13 07:05:05;;;;;;;5.40;3.70;;;;;;;18.80;100.00;100003.63;178131;1264;45994;-82
2023/07/13 07:09:09;;;;;;;13.00;5.20;;;;;;;18.87;100.00;99986.43;179373;1263;46163;-83
2023/07/13 07:13:12;;;;;;;7.30;4.60;;;;;;;18.95;100.00;99982.23;177871;1262;59526;-84
2023/07/13 07:17:15;;;;;;;5.00;4.10;;;;;;;19.10;100.00;100004.27;177322;1266;46163;-84
2023/07/13 07:21:17;;;;;;;8.10;6.00;;;;;;;19.41;100.00;100032.85;176799;1262;190826;-83
2023/07/13 07:25:20;;;;;;;7.40;4.40;;;;;;;19.77;100.00;100043.02;177738;1263;45566;-83
2023/07/13 07:29:26;;;;;;;7.10;5.20;;;;;;;20.06;100.00;100045.55;177869;1267;46023;-83
2023/07/13 07:33:34;;;;;;;5.10;3.90;;;;;;;20.55;100.00;100045.02;178437;1262;59091;-83
2023/07/13 07:37:37;;;;;;;4.50;4.00;;;;;;;21.06;100.00;100046.63;177487;1267;46093;-83
2023/07/13 07:41:43;;;;;;;5.70;3.50;;;;;;;21.38;100.00;100041.54;178433;1265;46087;-82
2023/07/13 07:45:59;;;;;;;3.60;3.10;;;;;;;21.57;100.00;100039.23;178145;1266;44179;-82
2023/07/13 07:50:05;;;;;;;5.40;2.50;;;;;;;21.76;100.00;100043.21;178488;1264;44382;-82
2023/07/13 07:54:08;;;;;;;5.80;2.60;;;;;;;22.08;100.00;100039.32;178513;1262;59884;-82
2023/07/13 07:58:16;;;;;;;7.60;3.00;;;;;;;22.35;100.00;100031.90;178483;1263;46123;-83
2023/07/13 08:02:41;;;;;;;3.80;3.10;;;;;;;22.69;100.00;100030.23;179517;1263;43983;-82
2023/07/13 08:07:05;;;;;;;4.20;2.80;;;;;;;23.09;100.00;100039.50;178990;1262;46442;-83
2023/07/13 08:11:09;;;;;;;4.30;2.10;;;;;;;23.32;100.00;100041.43;179424;1266;44841;-83
2023/07/13 08:15:16;;;;;;;3.90;2.60;;;;;;;23.44;99.72;100045.17;179100;1263;58690;-82
2023/07/13 08:19:20;;;;;;;4.50;2.10;;;;;;;23.56;98.87;100045.23;178962;1264;45956;-82
2023/07/13 08:23:23;;;;;;;2.80;1.90;;;;;;;23.90;99.71;100043.55;178961;1266;43850;-82
2023/07/13 08:27:27;;;;;;;3.30;2.70;;;;;;;24.18;94.98;100045.29;179229;1265;46072;-82
2023/07/13 08:31:31;;;;;;;4.20;3.00;;;;;;;24.30;95.88;100052.42;179349;1264;45917;-82
2023/07/13 08:35:34;;;;;;;4.10;1.90;;;;;;;24.65;95.86;100061.16;178926;1263;58208;-82
2023/07/13 08:39:37;;;;;;;4.80;2.70;;;;;;;24.87;92.32;100070.22;179230;1261;46005;-82
2023/07/13 08:43:46;;;;;;;2.10;2.00;;;;;;;25.03;89.08;100069.11;179252;1264;45902;-82
2023/07/13 08:47:55;;;;;;;5.50;2.30;;;;;;;24.83;82.67;100072.91;180693;1263;43853;-82
2023/07/13 08:52:09;;;;;;;5.70;2.20;;;;;;;24.81;87.28;100083.41;179561;1264;46066;-82
2023/07/13 08:56:26;;;;;;;3.70;1.90;;;;;;;24.93;87.47;100080.90;179413;1264;59008;-83
2023/07/13 09:00:51;;;;;;;3.50;1.70;;;;;;;24.95;88.11;100084.44;179276;1262;44035;-82
2023/07/13 09:05:26;;;;;;;3.00;2.20;;;;;;;24.85;86.04;100088.23;179635;1264;46055;-82
2023/07/13 09:10:07;;;;;;;2.80;1.40;;;;;;;24.73;84.73;100089.59;179652;1264;46026;-82
2023/07/13 09:14:29;;;;;;;3.30;1.70;;;;;;;24.83;80.05;100092.00;179657;1264;45917;-82
2023/07/13 09:18:42;;;;;;;2.20;1.80;;;;;;;24.96;79.85;100097.14;179606;1262;57927;-83
2023/07/13 09:22:47;;;;;;;1.90;1.50;;;;;;;24.99;75.84;100097.95;179491;1262;44013;-82
2023/07/13 09:26:51;;;;;;;10.80;2.30;;;;;;;25.05;76.02;100107.10;179387;1264;46147;-82
2023/07/13 09:31:06;;;;;;;4.40;2.40;;;;;;;25.13;78.66;100110.31;179647;1267;45874;-82
2023/07/13 09:35:17;;;;;;;4.70;1.50;;;;;;;25.20;79.30;100110.30;179611;1264;44496;-82
2023/07/13 09:39:30;;;;;;;3.40;2.00;;;;;;;25.08;75.69;100104.19;179470;1264;58426;-82
2023/07/13 09:43:33;;;;;;;4.20;1.70;;;;;;;25.08;75.88;100109.15;179546;1266;46031;-82
2023/07/13 09:47:40;;;;;;;2.30;1.60;;;;;;;25.31;74.58;100109.90;179406;1264;46118;-82
2023/07/13 09:51:44;;;;;;;1.50;1.10;;;;;;;25.56;71.96;100106.21;179645;1264;44418;-82
2023/07/13 09:55:48;;;;;;;3.10;1.30;;;;;;;25.88;74.09;100103.64;179688;1262;43968;-83
2023/07/13 09:59:58;;;;;;;3.00;2.10;;;;;;;25.87;72.06;100101.80;179492;1264;57907;-82
2023/07/13 10:04:12;;;;;;;4.60;2.50;;;;;;;25.79;72.33;100094.27;180270;1264;45909;-83
2023/07/13 10:08:24;;;;;;;3.90;1.70;;;;;;;25.93;70.30;100093.96;179705;1264;43923;-82
2023/07/13 10:12:35;;;;;;;3.10;1.60;;;;;;;25.91;67.81;100096.46;179897;1263;46091;-83
2023/07/13 10:16:43;;;;;;;4.10;2.00;;;;;;;25.80;69.84;100101.10;179843;1262;44834;-82
2023/07/13 10:20:46;;;;;;;1.60;1.40;;;;;;;25.69;69.19;100103.20;179519;1264;57922;-82
2023/07/13 10:24:54;;;;;;;3.40;2.10;;;;;;;25.47;70.22;100100.71;179695;1264;44241;-83
2023/07/13 10:29:04;;;;;;;2.40;1.70;;;;;;;25.26;71.74;100107.98;180076;1262;43671;-83
2023/07/13 10:33:12;;;;;;;2.70;1.50;;;;;;;25.22;73.55;100105.98;179559;1264;44228;-82
2023/07/13 10:37:24;;;;;;;2.30;2.20;;;;;;;25.33;72.78;100109.95;179684;1264;45997;-83
2023/07/13 10:41:30;;;;;;;3.80;2.30;;;;;;;25.36;72.03;100113.10;179528;1264;59549;-83
2023/07/13 10:45:37;;;;;;;3.40;3.00;;;;;;;25.71;72.48;100103.80;179751;1264;44088;-83
2023/07/13 10:49:42;;;;;;;3.80;3.00;;;;;;;26.02;72.16;100097.36;179757;1262;45873;-83
2023/07/13 10:53:46;;;;;;;4.30;2.00;;;;;;;26.10;69.56;100096.59;179624;1263;44679;-83
2023/07/13 10:57:51;;;;;;;2.70;2.30;;;;;;;26.09;70.22;100098.35;179583;1264;46021;-83
2023/07/13 11:01:58;;;;;;;4.80;1.90;;;;;;;25.98;70.59;100104.95;179581;1264;57924;-83
2023/07/13 11:06:08;;;;;;;4.10;1.90;;;;;;;25.90;71.74;100108.77;179706;1262;44663;-83
2023/07/13 11:10:55;;;;;;;8.00;2.10;;;;;;;25.93;71.60;100107.33;179963;1263;46060;-83
2023/07/13 11:14:58;;;;;;;;;;;;;;;25.86;73.98;100106.59;179779;1262;45969;-83
2023/07/13 11:19:01;;;;;;;5.50;2.00;;;;;;;25.81;73.29;100101.52;179943;1262;47730;-82
2023/07/13 11:23:16;;;;;;;3.40;1.60;;;;;;;25.88;72.07;100099.66;179686;1262;59266;-83
2023/07/13 11:27:40;;;;;;;2.80;2.10;;;;;;;25.93;69.14;100098.08;179772;1262;44692;-83
2023/07/13 11:31:53;;;;;;;7.20;2.20;;;;;;;26.10;69.21;100095.39;179885;1264;44472;-83
2023/07/13 11:35:56;;;;;;;2.10;1.70;;;;;;;26.28;69.49;100095.04;179584;1262;45975;-82
2023/07/13 11:40:00;;;;;;;2.60;1.10;;;;;;;26.31;68.48;100093.27;179768;1262;45930;-82
2023/07/13 11:44:17;;;;;;;3.00;1.80;;;;;;;26.55;68.44;100089.98;179704;1264;57951;-82
2023/07/13 11:48:31;;;;;;;12.00;2.30;;;;;;;26.84;61.88;100092.35;179686;1262;44569;-82
2023/07/13 11:52:37;;;;;;;3.60;2.00;;;;;;;26.96;62.32;100093.23;179870;1262;46094;-82
2023/07/13 11:56:40;;;;;;;3.10;1.60;;;;;;;27.12;59.44;100091.88;179690;1262;43660;-82
2023/07/13 12:00:45;;;;;;;3.80;1.60;;;;;;;27.33;59.52;100092.30;179735;1262;43625;-82
2023/07/13 12:04:52;;;;;;;4.60;1.50;;;;;;;27.53;55.71;100086.20;179869;1265;57527;-83
2023/07/13 12:09:00;;;;;;;1.80;1.60;;;;;;;27.78;57.76;100073.98;179715;1262;45061;-82
2023/07/13 12:13:07;;;;;;;4.10;1.40;;;;;;;27.89;54.51;100078.35;179747;1262;46010;-83
2023/07/13 12:17:20;;;;;;;2.40;1.30;;;;;;;27.94;53.02;100081.94;179950;1264;43652;-83
2023/07/13 12:21:31;;;;;;;2.60;1.30;;;;;;;28.13;54.19;100070.72;179937;1262;43733;-82
2023/07/13 12:25:35;;;;;;;4.90;1.50;;;;;;;28.16;51.73;100069.75;179958;1262;57952;-83
2023/07/13 12:29:39;;;;;;;2.20;1.30;;;;;;;28.16;54.05;100070.23;180097;1262;46085;-82
2023/07/13 12:33:43;;;;;;;2.70;1.60;;;;;;;28.05;52.72;100061.23;179843;1262;44680;-82
2023/07/13 12:37:47;;;;;;;1.30;0.80;;;;;;;28.11;52.51;100055.42;180000;1262;46026;-83
2023/07/13 12:41:53;;;;;;;2.70;1.20;;;;;;;28.15;51.12;100051.17;179905;1262;46031;-82
2023/07/13 12:46:03;;;;;;;1.60;1.10;;;;;;;28.26;51.57;100043.60;180096;1262;58295;-82
2023/07/13 12:50:18;;;;;;;1.90;0.90;;;;;;;28.46;54.38;100045.27;179907;1262;46003;-83
2023/07/13 12:54:22;;;;;;;2.30;1.00;;;;;;;28.56;53.01;100040.32;179910;1262;47283;-82
2023/07/13 12:58:25;;;;;;;1.90;1.00;;;;;;;28.67;52.03;100041.89;179735;1262;46154;-82
2023/07/13 13:02:34;;;;;;;1.10;0.90;;;;;;;28.78;51.23;100042.05;179935;1264;45257;-82
2023/07/13 13:06:40;;;;;;;5.20;0.90;;;;;;;28.87;49.89;100044.10;180203;1264;57560;-82
2023/07/13 13:10:45;;;;;;;3.60;1.70;;;;;;;28.84;48.63;100046.25;179805;1262;43623;-82
2023/07/13 13:14:52;;;;;;;1.50;1.20;;;;;;;28.91;48.44;100039.33;179846;1262;46065;-82
2023/07/13 13:18:58;;;;;;;1.20;0.90;;;;;;;29.00;46.94;100036.66;180038;1262;44740;-83
2023/07/13 13:23:02;;;;;;;1.40;1.10;;;;;;;29.07;47.02;100030.11;179889;1263;46026;-83
2023/07/13 13:27:16;;;;;;;3.50;1.60;;;;;;;29.07;46.36;100026.89;179857;1263;59365;-83
2023/07/13 13:31:19;;;;;;;4.30;1.40;;;;;;;28.82;48.43;100037.84;179897;1262;44556;-83
2023/07/13 13:35:24;;;;;;;2.70;1.50;;;;;;;28.64;48.92;100034.18;179864;1261;43932;-83
2023/07/13 13:39:38;;;;;;;2.70;2.00;;;;;;;28.45;49.57;100038.85;179924;1263;44703;-82
2023/07/13 13:43:48;;;;;;;1.50;1.40;;;;;;;28.07;50.43;100037.10;179964;1264;43853;-82
2023/07/13 13:47:52;;;;;;;1.30;1.00;;;;;;;27.65;52.16;100050.05;179767;1262;57684;-84
2023/07/13 13:51:56;;;;;;;6.40;1.60;;;;;;;27.33;53.66;100057.52;179701;1264;43978;-84
2023/07/13 13:55:59;;;;;;;1.60;1.30;;;;;;;26.97;56.09;100060.51;180075;1262;43523;-85
2023/07/13 14:00:03;;;;;;;4.00;1.50;;;;;;;26.57;58.66;100060.82;179397;1262;43738;-85
2023/07/13 14:04:14;;;;;;;2.20;1.90;;;;;;;26.30;60.87;100064.32;179056;1264;45978;-84
2023/07/13 14:08:20;;;;;;;3.40;1.90;;;;;;;26.10;63.34;100066.23;179567;1262;60292;-84
2023/07/13 14:12:28;;;;;;;3.30;1.90;;;;;;;25.94;63.47;100057.45;179699;1262;44501;-82
2023/07/13 14:16:33;;;;;;;4.00;2.60;;;;;;;25.83;63.48;100058.83;179909;1262;44902;-82
2023/07/13 14:20:37;;;;;;;3.10;2.50;;;;;;;26.09;64.86;100061.31;179809;1262;46364;-82
2023/07/13 14:24:41;;;;;;;2.30;1.70;;;;;;;26.43;61.70;100049.79;179589;1262;44662;-82
2023/07/13 14:28:47;;;;;;;2.80;1.50;;;;;;;26.72;57.48;100044.94;180357;1262;58094;-82
2023/07/13 14:32:51;;;;;;;2.60;1.80;;;;;;;27.05;56.40;100037.27;180894;1262;43776;-82
2023/07/13 14:36:55;;;;;;;2.80;1.50;;;;;;;27.29;54.95;100024.41;179802;1264;44090;-82
2023/07/13 14:40:59;;;;;;;3.50;1.50;;;;;;;27.44;54.40;100022.11;179831;1262;44220;-82
2023/07/13 14:45:03;;;;;;;1.90;1.10;;;;;;;27.59;55.08;100019.46;179810;1261;44244;-82
2023/07/13 14:49:22;;;;;;;5.00;1.40;;;;;;;27.71;54.48;100011.05;179747;1262;58258;-82
2023/07/13 14:53:29;;;;;;;2.50;2.00;;;;;;;27.88;53.68;100013.84;179764;1262;44488;-83
2023/07/13 14:57:33;;;;;;;5.10;1.60;;;;;;;28.06;53.69;100010.52;180138;1262;44698;-82
2023/07/13 15:01:39;;;;;;;1.60;1.50;;;;;;;28.25;51.55;100013.96;180023;1262;45946;-83
2023/07/13 15:05:43;;;;;;;9.60;1.70;;;;;;;28.45;51.61;100009.37;179724;1262;45099;-83
2023/07/13 15:09:47;;;;;;;1.70;1.30;;;;;;;28.58;51.27;100008.08;179904;1265;58954;-82
2023/07/13 15:13:51;;;;;;;2.50;2.20;;;;;;;28.71;50.29;100007.09;180001;1262;44006;-82
2023/07/13 15:17:56;;;;;;;1.50;1.40;;;;;;;28.81;50.54;100013.91;180059;1262;45969;-82
2023/07/13 15:21:59;;;;;;;2.20;1.40;;;;;;;28.85;50.43;100018.23;180017;1262;43975;-82
2023/07/13 15:26:03;;;;;;;2.90;2.50;;;;;;;28.90;51.43;100016.50;180027;1266;46103;-83
2023/07/13 15:30:07;;;;;;;1.60;1.50;;;;;;;28.60;50.65;100012.57;179886;1262;58124;-82
2023/07/13 15:34:13;;;;;;;5.70;1.70;;;;;;;28.23;51.52;100017.17;179936;1262;44415;-82
2023/07/13 15:38:20;;;;;;;2.20;1.70;;;;;;;27.84;52.76;100015.58;179850;1262;46028;-82
2023/07/13 15:42:24;;;;;;;2.30;1.70;;;;;;;27.59;53.13;100013.95;179997;1262;45009;-82
2023/07/13 15:46:28;;;;;;;2.50;1.90;;;;;;;27.50;54.00;100014.42;179901;1262;44762;-82
2023/07/13 15:50:43;;;;;;;5.40;2.40;;;;;;;27.43;55.21;100018.01;179776;1262;57999;-82
2023/07/13 15:54:47;;;;;;;2.20;1.40;;;;;;;27.35;54.82;100024.52;179936;1262;44555;-82
2023/07/13 15:58:52;;;;;;;2.80;2.30;;;;;;;27.39;53.87;100023.48;179918;1262;43987;-82
2023/07/13 16:02:56;;;;;;;3.20;1.70;;;;;;;27.26;55.37;100032.54;180077;1262;44797;-82
2023/07/13 16:07:01;;;;;;;3.00;2.00;;;;;;;26.99;54.94;100031.96;179855;1263;45924;-83
2023/07/13 16:11:04;;;;;;;2.00;1.70;;;;;;;27.01;55.31;100031.17;179523;1262;59662;-84
2023/07/13 16:15:20;;;;;;;3.80;1.60;;;;;;;27.12;56.41;100034.44;179494;1262;44234;-84
2023/07/13 16:19:28;;;;;;;2.80;1.60;;;;;;;27.35;57.22;100034.66;179206;1263;44707;-84
2023/07/13 16:23:33;;;;;;;1.80;1.40;;;;;;;27.61;56.41;100034.23;179582;1263;45959;-84
2023/07/13 16:27:36;;;;;;;2.20;1.70;;;;;;;27.76;54.84;100032.77;179830;1263;43818;-84
2023/07/13 16:31:39;;;;;;;2.60;2.10;;;;;;;27.84;54.31;100035.13;179484;1263;58372;-84
2023/07/13 16:35:43;;;;;;;2.50;2.10;;;;;;;27.86;55.74;100035.38;179646;1261;46125;-85
2023/07/13 16:39:52;;;;;;;3.00;1.70;;;;;;;27.95;54.85;100030.66;178968;1264;46163;-84
2023/07/13 16:43:56;;;;;;;1.80;1.40;;;;;;;27.88;53.61;100034.48;178614;1264;44133;-84
2023/07/13 16:48:02;;;;;;;2.00;1.60;;;;;;;27.76;53.10;100037.14;179411;1263;45901;-85
2023/07/13 16:52:05;;;;;;;2.50;2.20;;;;;;;27.67;53.53;100040.52;179652;1264;58568;-85
2023/07/13 16:56:16;;;;;;;3.50;2.30;;;;;;;27.65;55.28;100037.65;179958;1264;45943;-85
2023/07/13 17:00:29;;;;;;;10.70;3.50;;;;;;;27.62;55.90;100040.06;178834;1263;46010;-84
2023/07/13 17:04:34;;;;;;;3.70;2.50;;;;;;;27.56;56.28;100038.64;178679;1263;44613;-84
2023/07/13 17:08:38;;;;;;;3.20;2.50;;;;;;;27.44;57.83;100042.86;179017;1264;46011;-84
2023/07/13 17:12:42;;;;;;;3.30;2.00;;;;;;;27.23;57.11;100044.42;178902;1263;58222;-84
2023/07/13 17:16:48;;;;;;;2.70;2.10;;;;;;;27.01;57.12;100044.45;179417;1263;44349;-85
2023/07/13 17:20:53;;;;;;;1.70;1.60;;;;;;;26.85;57.16;100046.05;179152;1264;45925;-84
2023/07/13 17:24:58;;;;;;;2.80;2.10;;;;;;;26.69;58.40;100047.97;180563;1264;43925;-85
2023/07/13 17:29:05;;;;;;;4.70;2.30;;;;;;;26.49;63.47;100053.34;179138;1263;45995;-84
2023/07/13 17:33:32;;;;;;;2.00;1.70;;;;;;;26.35;64.58;100062.05;178444;1267;59500;-84
2023/07/13 17:37:35;;;;;;;6.20;2.10;;;;;;;26.15;65.67;100065.66;179198;1263;46132;-84
2023/07/13 17:41:42;;;;;;;3.10;1.80;;;;;;;25.75;61.97;100070.13;179693;1264;43950;-84
2023/07/13 17:45:46;;;;;;;4.70;2.60;;;;;;;25.55;63.06;100078.75;178637;1263;46100;-84
2023/07/13 17:49:49;;;;;;;2.00;1.60;;;;;;;25.37;61.45;100080.92;179097;1263;46036;-84
2023/07/13 17:53:56;;;;;;;4.50;2.60;;;;;;;25.30;62.18;100085.16;179317;1263;58221;-84
2023/07/13 17:58:01;;;;;;;5.10;1.80;;;;;;;25.28;63.17;100088.33;179995;1262;45039;-85
2023/07/13 18:02:18;;;;;;;5.20;2.00;;;;;;;25.28;65.40;100088.00;179789;1263;43879;-84
2023/07/13 18:06:32;;;;;;;5.90;3.20;;;;;;;25.28;66.35;100096.11;179487;1263;44576;-84
2023/07/13 18:10:35;;;;;;;3.50;1.90;;;;;;;25.23;68.32;100100.23;179334;1264;45992;-84
2023/07/13 18:14:38;;;;;;;6.50;2.80;;;;;;;25.14;71.13;100101.09;178465;1263;58380;-85
2023/07/13 18:18:42;;;;;;;4.90;2.50;;;;;;;25.04;74.61;100103.80;178512;1263;45917;-83
2023/07/13 18:22:45;;;;;;;10.50;4.20;;;;;;;24.88;75.62;100107.95;179309;1263;46044;-85
2023/07/13 18:26:48;;;;;;;19.50;9.20;;;;;;;24.67;76.78;100115.12;179795;1263;44028;-85
2023/07/13 18:30:56;;;;;;;19.30;13.80;;;;;;;24.46;77.66;100119.39;179128;1263;44685;-85
2023/07/13 18:35:02;;;;;;;43.90;22.80;;;;;;;24.15;80.20;100111.98;179255;1263;58241;-84
2023/07/13 18:39:13;;;;;;;24.60;15.00;;;;;;;23.88;79.81;100111.25;178543;1264;45993;-84
2023/07/13 18:43:16;;;;;;;18.30;12.10;;;;;;;23.69;79.28;100123.69;178661;1263;46118;-84
2023/07/13 18:47:22;;;;;;;17.30;10.80;;;;;;;23.56;80.09;100126.33;178628;1264;44619;-83